Home   Weather   France   Montpellier   Past weeks
Flag for France

Past Weather in Montpellier, Hérault, France — Yesterday and Last 2 Weeks

Currently: 52 °F. Sunny. (Weather station: Montpellier Airport, France). See more current weather

Past Weather in Montpellier — Graph

°F

Montpellier Temperature Yesterday

Maximum temperature yesterday: 59 °F (at 2:00 pm)
Minimum temperature yesterday: 41 °F (at 7:30 am)
Average temperature yesterday: 50 °F

High & Low Weather Summary for the Past Weeks

 TemperatureHumidityPressure
High66 °F (Nov 15, 1:00 pm)100% (Nov 15, 7:00 pm)30.36 "Hg (Nov 15, 7:00 pm)
Low36 °F (Nov 30, 7:00 am)39% (Nov 19, 2:00 pm)29.56 "Hg (Nov 22, 2:00 am)
Average52 °F74%29.93 "Hg
* Reported Nov 15 10:00 am — Nov 30 10:00 am, Montpellier. Weather by CustomWeather, © 2022

Note: Actual official high and low records may vary slightly from our data, if they occured in-between our weather recording intervals... More about our weather records

Montpellier Weather History for the Previous 24 Hours

Scroll right to see more
 ConditionsComfort  
Time TempWeatherWind HumidityBarometerVisibility
10:00 am
Wed, Nov 30
48 °FSunny.6 mph71%30.04 "Hg10 mi
9:00 am41 °FSunny.6 mph87%30.04 "Hg10 mi
8:30 am37 °FClear.3 mph87%30.04 "HgN/A
8:00 am36 °FClear.2 mph93%30.04 "HgN/A
7:00 am36 °FClear.3 mph93%30.01 "HgN/A
6:30 am37 °FClear.6 mph87%30.04 "HgN/A
6:00 am37 °FClear.5 mph87%30.04 "HgN/A
5:30 am39 °FClear.6 mph81%30.04 "HgN/A
5:00 am43 °FClear.7 mph76%30.04 "HgN/A
4:30 am43 °FClear.8 mph76%30.04 "HgN/A
4:00 am41 °FClear.6 mph76%30.04 "HgN/A
3:30 am37 °FClear.5 mph87%30.04 "HgN/A
3:00 am39 °FClear.6 mph87%30.04 "HgN/A
2:30 am39 °FClear.6 mph87%30.04 "HgN/A
2:00 am39 °FClear.3 mph81%30.04 "HgN/A
12:30 am41 °FClear.5 mph81%30.04 "HgN/A
12:00 am43 °FClear.6 mph76%30.01 "HgN/A
11:30 pm
Tue, Nov 29
45 °FClear.8 mph76%30.01 "HgN/A
11:00 pm41 °FClear.7 mph81%30.04 "HgN/A
10:30 pm45 °FClear.5 mph76%30.04 "HgN/A
10:00 pm45 °FClear.7 mph76%30.01 "HgN/A
9:30 pm46 °FClear.8 mph71%30.01 "HgN/A
9:00 pm46 °FClear.7 mph71%30.01 "HgN/A
8:30 pm46 °FClear.7 mph76%30.04 "HgN/A
8:00 pm45 °FClear.7 mph76%30.04 "HgN/A
7:00 pm50 °FClear.8 mph62%30.01 "HgN/A
6:30 pm50 °FClear.7 mph62%30.01 "HgN/A
6:00 pm48 °FClear.5 mph62%30.01 "HgN/A
5:30 pm48 °FClear.7 mph66%29.98 "HgN/A
5:00 pm52 °FClear.8 mph58%29.98 "HgN/A
4:30 pm55 °FClear.7 mph55%29.98 "HgN/A
4:00 pm57 °FClear.8 mph51%29.98 "HgN/A
3:30 pm57 °FBroken clouds.14 mph48%29.98 "HgN/A
3:00 pm57 °FClear.14 mph48%29.98 "HgN/A
2:30 pm59 °FClear.14 mph42%29.98 "HgN/A
2:00 pm59 °FClear.16 mph42%29.98 "HgN/A
1:00 pm57 °FClear.16 mph48%29.98 "HgN/A
12:30 pm57 °FClear.16 mph48%30.01 "HgN/A
12:00 pm57 °FClear.13 mph51%30.01 "HgN/A
11:30 am55 °FClear.10 mph59%30.01 "HgN/A
11:00 am55 °FClear.10 mph55%30.01 "HgN/A
Weather by CustomWeather, © 2022

See weather overview